sensor_id;sensor_type;location;lat;lon;timestamp;temperature;humidity
15105;DHT22;7653;48.994;9.212;2023-10-19T00:02:44;11.30;96.00
15105;DHT22;7653;48.994;9.212;2023-10-19T00:05:10;11.30;96.00
15105;DHT22;7653;48.994;9.212;2023-10-19T00:07:38;11.30;96.10
15105;DHT22;7653;48.994;9.212;2023-10-19T00:10:05;11.30;96.20
15105;DHT22;7653;48.994;9.212;2023-10-19T00:12:32;11.30;96.20
15105;DHT22;7653;48.994;9.212;2023-10-19T00:14:59;11.30;96.20
15105;DHT22;7653;48.994;9.212;2023-10-19T00:17:29;11.30;96.30
15105;DHT22;7653;48.994;9.212;2023-10-19T00:19:57;11.30;96.30
15105;DHT22;7653;48.994;9.212;2023-10-19T00:22:35;11.30;96.40
15105;DHT22;7653;48.994;9.212;2023-10-19T00:25:02;11.30;96.40
15105;DHT22;7653;48.994;9.212;2023-10-19T00:27:29;11.30;96.50
15105;DHT22;7653;48.994;9.212;2023-10-19T00:29:55;11.30;96.60
15105;DHT22;7653;48.994;9.212;2023-10-19T00:32:33;11.30;96.60
15105;DHT22;7653;48.994;9.212;2023-10-19T00:35:05;11.30;96.80
15105;DHT22;7653;48.994;9.212;2023-10-19T00:37:47;11.30;96.80
15105;DHT22;7653;48.994;9.212;2023-10-19T00:40:14;11.30;96.90
15105;DHT22;7653;48.994;9.212;2023-10-19T00:42:42;11.30;97.20
15105;DHT22;7653;48.994;9.212;2023-10-19T00:45:12;11.30;97.40
15105;DHT22;7653;48.994;9.212;2023-10-19T00:47:39;11.30;97.50
15105;DHT22;7653;48.994;9.212;2023-10-19T00:50:11;11.40;97.60
15105;DHT22;7653;48.994;9.212;2023-10-19T00:52:43;11.50;97.60
15105;DHT22;7653;48.994;9.212;2023-10-19T00:55:13;11.50;97.60
15105;DHT22;7653;48.994;9.212;2023-10-19T00:57:41;11.50;97.60
15105;DHT22;7653;48.994;9.212;2023-10-19T01:00:08;11.40;97.60
15105;DHT22;7653;48.994;9.212;2023-10-19T01:02:38;11.50;97.60
15105;DHT22;7653;48.994;9.212;2023-10-19T01:05:11;11.50;97.60
15105;DHT22;7653;48.994;9.212;2023-10-19T01:07:41;11.40;97.60
15105;DHT22;7653;48.994;9.212;2023-10-19T01:10:08;11.50;97.60
15105;DHT22;7653;48.994;9.212;2023-10-19T01:12:45;11.50;97.60
15105;DHT22;7653;48.994;9.212;2023-10-19T01:15:16;11.50;97.60
15105;DHT22;7653;48.994;9.212;2023-10-19T01:17:47;11.60;97.60
15105;DHT22;7653;48.994;9.212;2023-10-19T01:20:28;11.60;97.70
15105;DHT22;7653;48.994;9.212;2023-10-19T01:22:57;11.60;97.60
15105;DHT22;7653;48.994;9.212;2023-10-19T01:28:24;11.70;97.70
15105;DHT22;7653;48.994;9.212;2023-10-19T01:31:13;11.80;97.60
15105;DHT22;7653;48.994;9.212;2023-10-19T01:33:48;11.90;97.50
15105;DHT22;7653;48.994;9.212;2023-10-19T01:36:14;11.70;97.10
15105;DHT22;7653;48.994;9.212;2023-10-19T01:38:56;11.70;97.40
15105;DHT22;7653;48.994;9.212;2023-10-19T01:41:26;11.60;97.90
15105;DHT22;7653;48.994;9.212;2023-10-19T01:43:53;11.70;97.70
15105;DHT22;7653;48.994;9.212;2023-10-19T01:46:19;11.70;97.70
15105;DHT22;7653;48.994;9.212;2023-10-19T01:48:50;11.80;97.70
15105;DHT22;7653;48.994;9.212;2023-10-19T01:51:21;11.70;97.70
15105;DHT22;7653;48.994;9.212;2023-10-19T01:53:48;11.80;97.70
15105;DHT22;7653;48.994;9.212;2023-10-19T01:56:16;12.00;97.80
15105;DHT22;7653;48.994;9.212;2023-10-19T01:58:46;12.00;97.80
15105;DHT22;7653;48.994;9.212;2023-10-19T02:01:13;12.00;97.80
15105;DHT22;7653;48.994;9.212;2023-10-19T02:03:42;11.90;97.60
15105;DHT22;7653;48.994;9.212;2023-10-19T02:06:10;12.00;97.80
15105;DHT22;7653;48.994;9.212;2023-10-19T02:08:50;12.00;97.80
15105;DHT22;7653;48.994;9.212;2023-10-19T02:11:19;12.10;97.70
15105;DHT22;7653;48.994;9.212;2023-10-19T02:13:47;12.10;97.60
15105;DHT22;7653;48.994;9.212;2023-10-19T02:16:15;12.10;97.30
15105;DHT22;7653;48.994;9.212;2023-10-19T02:18:44;12.10;97.20
15105;DHT22;7653;48.994;9.212;2023-10-19T02:21:10;12.10;97.40
15105;DHT22;7653;48.994;9.212;2023-10-19T02:23:40;12.10;97.30
15105;DHT22;7653;48.994;9.212;2023-10-19T02:26:10;12.20;97.20
15105;DHT22;7653;48.994;9.212;2023-10-19T02:28:39;12.20;97.30
15105;DHT22;7653;48.994;9.212;2023-10-19T02:31:05;12.20;97.30
15105;DHT22;7653;48.994;9.212;2023-10-19T02:33:48;12.20;97.00
15105;DHT22;7653;48.994;9.212;2023-10-19T02:36:20;12.10;96.90
15105;DHT22;7653;48.994;9.212;2023-10-19T02:38:47;12.20;97.00
15105;DHT22;7653;48.994;9.212;2023-10-19T02:41:16;12.10;97.20
15105;DHT22;7653;48.994;9.212;2023-10-19T02:43:49;12.20;97.20
15105;DHT22;7653;48.994;9.212;2023-10-19T02:46:28;12.10;97.00
15105;DHT22;7653;48.994;9.212;2023-10-19T02:48:54;12.10;97.30
15105;DHT22;7653;48.994;9.212;2023-10-19T02:51:20;12.20;97.60
15105;DHT22;7653;48.994;9.212;2023-10-19T02:53:46;12.20;97.50
15105;DHT22;7653;48.994;9.212;2023-10-19T02:56:12;12.20;97.40
15105;DHT22;7653;48.994;9.212;2023-10-19T02:58:41;12.10;97.20
15105;DHT22;7653;48.994;9.212;2023-10-19T03:01:21;12.10;97.30
15105;DHT22;7653;48.994;9.212;2023-10-19T03:03:57;12.10;97.60
15105;DHT22;7653;48.994;9.212;2023-10-19T03:06:27;12.20;97.90
15105;DHT22;7653;48.994;9.212;2023-10-19T03:08:58;12.30;97.90
15105;DHT22;7653;48.994;9.212;2023-10-19T03:11:27;12.20;97.70
15105;DHT22;7653;48.994;9.212;2023-10-19T03:13:56;12.30;97.90
15105;DHT22;7653;48.994;9.212;2023-10-19T03:16:23;12.40;97.90
15105;DHT22;7653;48.994;9.212;2023-10-19T03:18:49;12.30;97.50
15105;DHT22;7653;48.994;9.212;2023-10-19T03:21:16;12.30;97.70
15105;DHT22;7653;48.994;9.212;2023-10-19T03:23:44;12.40;97.70
15105;DHT22;7653;48.994;9.212;2023-10-19T03:26:10;12.40;97.90
15105;DHT22;7653;48.994;9.212;2023-10-19T03:28:54;12.30;97.70
15105;DHT22;7653;48.994;9.212;2023-10-19T03:31:26;12.30;97.90
15105;DHT22;7653;48.994;9.212;2023-10-19T03:33:53;12.30;97.90
15105;DHT22;7653;48.994;9.212;2023-10-19T03:36:22;12.30;97.90
15105;DHT22;7653;48.994;9.212;2023-10-19T03:38:49;12.20;97.90
15105;DHT22;7653;48.994;9.212;2023-10-19T03:41:17;12.30;98.00
15105;DHT22;7653;48.994;9.212;2023-10-19T03:43:47;12.40;98.20
15105;DHT22;7653;48.994;9.212;2023-10-19T03:46:15;12.20;97.90
15105;DHT22;7653;48.994;9.212;2023-10-19T03:49:03;12.20;97.90
15105;DHT22;7653;48.994;9.212;2023-10-19T03:51:38;12.20;97.90
15105;DHT22;7653;48.994;9.212;2023-10-19T03:54:25;12.10;98.10
15105;DHT22;7653;48.994;9.212;2023-10-19T03:56:51;12.00;98.40
15105;DHT22;7653;48.994;9.212;2023-10-19T03:59:17;12.00;98.30
15105;DHT22;7653;48.994;9.212;2023-10-19T04:01:44;12.00;98.30
15105;DHT22;7653;48.994;9.212;2023-10-19T04:04:13;11.90;98.10
15105;DHT22;7653;48.994;9.212;2023-10-19T04:06:42;11.80;98.30
15105;DHT22;7653;48.994;9.212;2023-10-19T04:09:13;11.80;98.40
15105;DHT22;7653;48.994;9.212;2023-10-19T04:11:42;11.70;98.40
15105;DHT22;7653;48.994;9.212;2023-10-19T04:14:15;11.70;98.50
15105;DHT22;7653;48.994;9.212;2023-10-19T04:16:42;11.70;98.40
15105;DHT22;7653;48.994;9.212;2023-10-19T04:19:13;11.60;98.40
15105;DHT22;7653;48.994;9.212;2023-10-19T04:21:39;11.70;98.50
15105;DHT22;7653;48.994;9.212;2023-10-19T04:24:06;11.70;98.50
15105;DHT22;7653;48.994;9.212;2023-10-19T04:26:33;11.60;98.50
15105;DHT22;7653;48.994;9.212;2023-10-19T04:29:03;11.60;98.30
15105;DHT22;7653;48.994;9.212;2023-10-19T04:31:36;11.60;98.50
15105;DHT22;7653;48.994;9.212;2023-10-19T04:34:20;11.60;98.40
15105;DHT22;7653;48.994;9.212;2023-10-19T04:36:50;11.60;98.50
15105;DHT22;7653;48.994;9.212;2023-10-19T04:39:16;11.50;98.50
15105;DHT22;7653;48.994;9.212;2023-10-19T04:41:45;11.40;98.50
15105;DHT22;7653;48.994;9.212;2023-10-19T04:44:11;11.30;98.40
15105;DHT22;7653;48.994;9.212;2023-10-19T04:46:37;11.30;98.50
15105;DHT22;7653;48.994;9.212;2023-10-19T04:49:03;11.30;98.40
15105;DHT22;7653;48.994;9.212;2023-10-19T04:51:29;11.30;98.50
15105;DHT22;7653;48.994;9.212;2023-10-19T04:53:55;11.20;98.50
15105;DHT22;7653;48.994;9.212;2023-10-19T04:56:21;11.20;98.60
15105;DHT22;7653;48.994;9.212;2023-10-19T04:58:48;11.20;98.60
15105;DHT22;7653;48.994;9.212;2023-10-19T05:01:14;11.20;98.50
15105;DHT22;7653;48.994;9.212;2023-10-19T05:03:40;11.20;98.60
15105;DHT22;7653;48.994;9.212;2023-10-19T05:06:06;11.20;98.60
15105;DHT22;7653;48.994;9.212;2023-10-19T05:08:32;11.20;98.60
15105;DHT22;7653;48.994;9.212;2023-10-19T05:10:58;11.20;98.60
15105;DHT22;7653;48.994;9.212;2023-10-19T05:13:27;11.30;98.70
15105;DHT22;7653;48.994;9.212;2023-10-19T05:15:54;11.30;98.70
15105;DHT22;7653;48.994;9.212;2023-10-19T05:18:21;11.30;98.70
15105;DHT22;7653;48.994;9.212;2023-10-19T05:20:47;11.40;98.70
15105;DHT22;7653;48.994;9.212;2023-10-19T05:23:12;11.40;98.70
15105;DHT22;7653;48.994;9.212;2023-10-19T05:25:41;11.40;98.70
15105;DHT22;7653;48.994;9.212;2023-10-19T05:28:07;11.40;98.80
15105;DHT22;7653;48.994;9.212;2023-10-19T05:30:35;11.40;98.80
15105;DHT22;7653;48.994;9.212;2023-10-19T05:33:01;11.20;98.30
15105;DHT22;7653;48.994;9.212;2023-10-19T05:35:31;11.10;98.30
15105;DHT22;7653;48.994;9.212;2023-10-19T05:38:00;11.10;98.60
15105;DHT22;7653;48.994;9.212;2023-10-19T05:40:26;11.00;98.40
15105;DHT22;7653;48.994;9.212;2023-10-19T05:42:56;11.10;98.60
15105;DHT22;7653;48.994;9.212;2023-10-19T05:45:23;11.10;98.70
15105;DHT22;7653;48.994;9.212;2023-10-19T05:47:49;11.10;98.70
15105;DHT22;7653;48.994;9.212;2023-10-19T05:50:14;11.20;99.00
15105;DHT22;7653;48.994;9.212;2023-10-19T05:52:43;11.10;98.60
15105;DHT22;7653;48.994;9.212;2023-10-19T05:55:09;11.10;98.50
15105;DHT22;7653;48.994;9.212;2023-10-19T05:57:39;10.80;98.20
15105;DHT22;7653;48.994;9.212;2023-10-19T06:00:11;10.80;98.40
15105;DHT22;7653;48.994;9.212;2023-10-19T06:02:48;10.90;98.60
15105;DHT22;7653;48.994;9.212;2023-10-19T06:05:16;11.10;99.10
15105;DHT22;7653;48.994;9.212;2023-10-19T06:07:46;11.20;99.10
15105;DHT22;7653;48.994;9.212;2023-10-19T06:10:13;11.00;98.80
15105;DHT22;7653;48.994;9.212;2023-10-19T06:12:42;11.00;98.90
15105;DHT22;7653;48.994;9.212;2023-10-19T06:15:09;11.10;99.30
15105;DHT22;7653;48.994;9.212;2023-10-19T06:17:39;11.30;99.60
15105;DHT22;7653;48.994;9.212;2023-10-19T06:20:07;11.30;99.40
15105;DHT22;7653;48.994;9.212;2023-10-19T06:22:35;11.30;99.40
15105;DHT22;7653;48.994;9.212;2023-10-19T06:25:02;11.30;99.40
15105;DHT22;7653;48.994;9.212;2023-10-19T06:27:29;11.30;99.40
15105;DHT22;7653;48.994;9.212;2023-10-19T06:29:56;11.40;99.50
15105;DHT22;7653;48.994;9.212;2023-10-19T06:32:22;11.50;99.50
15105;DHT22;7653;48.994;9.212;2023-10-19T06:34:48;11.50;99.50
15105;DHT22;7653;48.994;9.212;2023-10-19T06:37:13;11.60;99.50
15105;DHT22;7653;48.994;9.212;2023-10-19T06:39:39;11.70;99.60
15105;DHT22;7653;48.994;9.212;2023-10-19T06:42:08;11.60;99.30
15105;DHT22;7653;48.994;9.212;2023-10-19T06:44:40;11.70;99.40
15105;DHT22;7653;48.994;9.212;2023-10-19T06:47:07;11.70;99.50
15105;DHT22;7653;48.994;9.212;2023-10-19T06:49:33;11.70;99.60
15105;DHT22;7653;48.994;9.212;2023-10-19T06:51:59;11.80;99.60
15105;DHT22;7653;48.994;9.212;2023-10-19T06:54:25;12.00;99.70
15105;DHT22;7653;48.994;9.212;2023-10-19T06:56:53;11.90;99.70
15105;DHT22;7653;48.994;9.212;2023-10-19T06:59:19;12.00;99.70
15105;DHT22;7653;48.994;9.212;2023-10-19T07:01:44;12.20;99.80
15105;DHT22;7653;48.994;9.212;2023-10-19T07:04:12;12.30;99.90
15105;DHT22;7653;48.994;9.212;2023-10-19T07:06:41;12.40;99.90
15105;DHT22;7653;48.994;9.212;2023-10-19T07:09:07;12.60;99.90
15105;DHT22;7653;48.994;9.212;2023-10-19T07:11:35;12.60;99.90
15105;DHT22;7653;48.994;9.212;2023-10-19T07:14:01;12.70;99.80
15105;DHT22;7653;48.994;9.212;2023-10-19T07:16:27;12.70;99.90
15105;DHT22;7653;48.994;9.212;2023-10-19T07:18:52;12.90;99.90
15105;DHT22;7653;48.994;9.212;2023-10-19T07:21:18;12.80;99.80
15105;DHT22;7653;48.994;9.212;2023-10-19T07:23:44;12.90;99.70
15105;DHT22;7653;48.994;9.212;2023-10-19T07:26:11;12.90;99.50
15105;DHT22;7653;48.994;9.212;2023-10-19T07:28:40;12.90;99.20
15105;DHT22;7653;48.994;9.212;2023-10-19T07:31:06;12.90;99.40
15105;DHT22;7653;48.994;9.212;2023-10-19T07:33:37;12.90;99.20
15105;DHT22;7653;48.994;9.212;2023-10-19T07:36:12;13.00;99.40
15105;DHT22;7653;48.994;9.212;2023-10-19T07:38:39;13.30;99.50
15105;DHT22;7653;48.994;9.212;2023-10-19T07:41:06;13.20;99.20
15105;DHT22;7653;48.994;9.212;2023-10-19T07:43:31;13.40;99.30
15105;DHT22;7653;48.994;9.212;2023-10-19T07:45:57;13.30;98.80
15105;DHT22;7653;48.994;9.212;2023-10-19T07:48:22;13.10;98.80
15105;DHT22;7653;48.994;9.212;2023-10-19T07:50:48;13.10;98.90
15105;DHT22;7653;48.994;9.212;2023-10-19T07:53:14;13.10;99.10
15105;DHT22;7653;48.994;9.212;2023-10-19T07:55:40;13.30;99.60
15105;DHT22;7653;48.994;9.212;2023-10-19T07:58:06;13.40;99.50
15105;DHT22;7653;48.994;9.212;2023-10-19T08:00:32;13.50;99.60
15105;DHT22;7653;48.994;9.212;2023-10-19T08:02:59;13.70;99.70
15105;DHT22;7653;48.994;9.212;2023-10-19T08:05:25;13.70;99.60
15105;DHT22;7653;48.994;9.212;2023-10-19T08:07:52;13.80;99.70
15105;DHT22;7653;48.994;9.212;2023-10-19T08:10:19;13.80;99.40
15105;DHT22;7653;48.994;9.212;2023-10-19T08:12:49;14.00;99.20
15105;DHT22;7653;48.994;9.212;2023-10-19T08:15:16;14.10;98.70
15105;DHT22;7653;48.994;9.212;2023-10-19T08:17:49;14.20;98.80
15105;DHT22;7653;48.994;9.212;2023-10-19T08:20:16;14.20;98.70
15105;DHT22;7653;48.994;9.212;2023-10-19T08:22:51;14.30;98.80
15105;DHT22;7653;48.994;9.212;2023-10-19T08:25:16;14.50;98.40
15105;DHT22;7653;48.994;9.212;2023-10-19T08:27:46;14.50;98.10
15105;DHT22;7653;48.994;9.212;2023-10-19T08:30:16;14.60;97.00
15105;DHT22;7653;48.994;9.212;2023-10-19T08:32:44;14.60;96.50
15105;DHT22;7653;48.994;9.212;2023-10-19T08:35:14;14.60;95.80
15105;DHT22;7653;48.994;9.212;2023-10-19T08:37:39;14.60;96.20
15105;DHT22;7653;48.994;9.212;2023-10-19T08:40:12;14.80;96.20
15105;DHT22;7653;48.994;9.212;2023-10-19T08:42:42;15.00;95.20
15105;DHT22;7653;48.994;9.212;2023-10-19T08:45:09;15.20;94.80
15105;DHT22;7653;48.994;9.212;2023-10-19T08:47:46;15.20;94.60
15105;DHT22;7653;48.994;9.212;2023-10-19T08:50:14;15.30;94.90
15105;DHT22;7653;48.994;9.212;2023-10-19T08:52:43;15.30;95.20
15105;DHT22;7653;48.994;9.212;2023-10-19T08:55:09;15.40;95.40
15105;DHT22;7653;48.994;9.212;2023-10-19T08:57:39;15.50;94.80
15105;DHT22;7653;48.994;9.212;2023-10-19T09:00:05;15.40;94.40
15105;DHT22;7653;48.994;9.212;2023-10-19T09:02:32;15.40;94.70
15105;DHT22;7653;48.994;9.212;2023-10-19T09:04:58;15.50;94.70
15105;DHT22;7653;48.994;9.212;2023-10-19T09:07:25;15.50;94.80
15105;DHT22;7653;48.994;9.212;2023-10-19T09:09:56;15.50;95.70
15105;DHT22;7653;48.994;9.212;2023-10-19T09:12:22;15.70;95.50
15105;DHT22;7653;48.994;9.212;2023-10-19T09:14:48;15.80;94.80
15105;DHT22;7653;48.994;9.212;2023-10-19T09:17:15;16.00;94.40
15105;DHT22;7653;48.994;9.212;2023-10-19T09:19:44;16.20;93.50
15105;DHT22;7653;48.994;9.212;2023-10-19T09:22:13;16.30;92.70
15105;DHT22;7653;48.994;9.212;2023-10-19T09:24:45;16.40;91.80
15105;DHT22;7653;48.994;9.212;2023-10-19T09:27:11;16.50;91.80
15105;DHT22;7653;48.994;9.212;2023-10-19T09:29:38;16.70;91.90
15105;DHT22;7653;48.994;9.212;2023-10-19T09:32:05;16.90;90.40
15105;DHT22;7653;48.994;9.212;2023-10-19T09:34:32;17.00;90.00
15105;DHT22;7653;48.994;9.212;2023-10-19T09:37:00;17.20;87.00
15105;DHT22;7653;48.994;9.212;2023-10-19T09:39:27;17.00;86.80
15105;DHT22;7653;48.994;9.212;2023-10-19T09:42:00;17.00;87.10
15105;DHT22;7653;48.994;9.212;2023-10-19T09:44:34;17.20;88.20
15105;DHT22;7653;48.994;9.212;2023-10-19T09:47:04;17.20;86.70
15105;DHT22;7653;48.994;9.212;2023-10-19T09:49:34;17.40;87.90
15105;DHT22;7653;48.994;9.212;2023-10-19T09:52:00;17.40;87.20
15105;DHT22;7653;48.994;9.212;2023-10-19T09:58:01;17.50;85.50
15105;DHT22;7653;48.994;9.212;2023-10-19T10:00:28;17.80;82.60
15105;DHT22;7653;48.994;9.212;2023-10-19T10:02:57;17.90;80.60
15105;DHT22;7653;48.994;9.212;2023-10-19T10:10:50;17.90;79.10
15105;DHT22;7653;48.994;9.212;2023-10-19T10:15:54;17.70;76.80
15105;DHT22;7653;48.994;9.212;2023-10-19T10:18:20;17.80;76.90
15105;DHT22;7653;48.994;9.212;2023-10-19T10:20:46;17.80;78.30
15105;DHT22;7653;48.994;9.212;2023-10-19T10:23:20;17.90;79.30
15105;DHT22;7653;48.994;9.212;2023-10-19T10:25:57;17.90;77.00
15105;DHT22;7653;48.994;9.212;2023-10-19T10:28:24;18.00;79.00
15105;DHT22;7653;48.994;9.212;2023-10-19T10:31:09;18.00;79.80
15105;DHT22;7653;48.994;9.212;2023-10-19T10:33:44;18.00;78.30
15105;DHT22;7653;48.994;9.212;2023-10-19T10:36:14;18.10;78.80
15105;DHT22;7653;48.994;9.212;2023-10-19T10:38:40;18.10;78.30
15105;DHT22;7653;48.994;9.212;2023-10-19T10:41:06;18.10;77.20
15105;DHT22;7653;48.994;9.212;2023-10-19T10:43:55;18.10;77.20
15105;DHT22;7653;48.994;9.212;2023-10-19T10:46:26;18.10;77.20
15105;DHT22;7653;48.994;9.212;2023-10-19T10:48:55;18.00;77.50
15105;DHT22;7653;48.994;9.212;2023-10-19T10:51:26;18.00;77.10
15105;DHT22;7653;48.994;9.212;2023-10-19T10:53:55;18.10;76.40
15105;DHT22;7653;48.994;9.212;2023-10-19T10:56:23;18.20;75.50
15105;DHT22;7653;48.994;9.212;2023-10-19T10:58:49;18.30;72.50
15105;DHT22;7653;48.994;9.212;2023-10-19T11:01:31;18.50;73.40
15105;DHT22;7653;48.994;9.212;2023-10-19T11:04:10;18.40;71.20
15105;DHT22;7653;48.994;9.212;2023-10-19T11:06:48;18.60;70.60
15105;DHT22;7653;48.994;9.212;2023-10-19T11:09:14;18.60;70.30
15105;DHT22;7653;48.994;9.212;2023-10-19T11:11:44;18.80;69.10
15105;DHT22;7653;48.994;9.212;2023-10-19T11:14:11;18.90;64.80
15105;DHT22;7653;48.994;9.212;2023-10-19T11:16:36;18.70;68.80
15105;DHT22;7653;48.994;9.212;2023-10-19T11:19:05;18.50;67.90
15105;DHT22;7653;48.994;9.212;2023-10-19T11:21:30;18.40;70.50
15105;DHT22;7653;48.994;9.212;2023-10-19T11:23:56;18.40;72.40
15105;DHT22;7653;48.994;9.212;2023-10-19T11:26:23;18.30;73.60
15105;DHT22;7653;48.994;9.212;2023-10-19T11:29:01;18.30;74.70
15105;DHT22;7653;48.994;9.212;2023-10-19T11:31:29;18.20;75.60
15105;DHT22;7653;48.994;9.212;2023-10-19T11:34:03;18.20;74.30
15105;DHT22;7653;48.994;9.212;2023-10-19T11:36:29;18.30;74.40
15105;DHT22;7653;48.994;9.212;2023-10-19T11:38:55;18.10;76.30
15105;DHT22;7653;48.994;9.212;2023-10-19T11:41:21;17.90;78.40
15105;DHT22;7653;48.994;9.212;2023-10-19T11:43:48;17.90;81.70
15105;DHT22;7653;48.994;9.212;2023-10-19T11:46:15;17.80;82.90
15105;DHT22;7653;48.994;9.212;2023-10-19T11:48:41;17.60;86.20
15105;DHT22;7653;48.994;9.212;2023-10-19T11:51:10;17.60;87.30
15105;DHT22;7653;48.994;9.212;2023-10-19T11:53:40;17.60;89.40
15105;DHT22;7653;48.994;9.212;2023-10-19T11:56:08;17.60;90.20
15105;DHT22;7653;48.994;9.212;2023-10-19T11:58:35;17.60;89.80
15105;DHT22;7653;48.994;9.212;2023-10-19T12:01:02;17.70;89.30
15105;DHT22;7653;48.994;9.212;2023-10-19T12:03:31;17.50;91.00
15105;DHT22;7653;48.994;9.212;2023-10-19T12:05:57;17.50;91.50
15105;DHT22;7653;48.994;9.212;2023-10-19T12:08:23;17.40;91.40
15105;DHT22;7653;48.994;9.212;2023-10-19T12:10:50;17.40;92.00
15105;DHT22;7653;48.994;9.212;2023-10-19T12:13:15;17.30;92.10
15105;DHT22;7653;48.994;9.212;2023-10-19T12:15:41;17.20;92.40
15105;DHT22;7653;48.994;9.212;2023-10-19T12:18:07;17.20;92.80
15105;DHT22;7653;48.994;9.212;2023-10-19T12:20:33;17.20;92.90
15105;DHT22;7653;48.994;9.212;2023-10-19T12:23:01;17.10;93.10
15105;DHT22;7653;48.994;9.212;2023-10-19T12:25:26;17.20;93.40
15105;DHT22;7653;48.994;9.212;2023-10-19T12:27:56;17.30;93.30
15105;DHT22;7653;48.994;9.212;2023-10-19T12:30:22;17.30;93.20
15105;DHT22;7653;48.994;9.212;2023-10-19T12:32:52;17.30;93.20
15105;DHT22;7653;48.994;9.212;2023-10-19T12:35:18;17.20;93.50
15105;DHT22;7653;48.994;9.212;2023-10-19T12:37:50;17.20;93.90
15105;DHT22;7653;48.994;9.212;2023-10-19T12:40:18;17.20;94.10
15105;DHT22;7653;48.994;9.212;2023-10-19T12:42:54;17.20;94.30
15105;DHT22;7653;48.994;9.212;2023-10-19T12:45:26;17.20;94.30
15105;DHT22;7653;48.994;9.212;2023-10-19T12:47:52;17.20;94.50
15105;DHT22;7653;48.994;9.212;2023-10-19T12:50:19;17.20;94.30
15105;DHT22;7653;48.994;9.212;2023-10-19T12:52:49;17.00;94.70
15105;DHT22;7653;48.994;9.212;2023-10-19T12:55:15;17.10;95.10
15105;DHT22;7653;48.994;9.212;2023-10-19T12:57:41;17.20;95.20
15105;DHT22;7653;48.994;9.212;2023-10-19T13:00:07;17.30;95.00
15105;DHT22;7653;48.994;9.212;2023-10-19T13:02:55;17.20;94.60
15105;DHT22;7653;48.994;9.212;2023-10-19T13:05:32;17.10;94.70
15105;DHT22;7653;48.994;9.212;2023-10-19T13:07:58;17.20;95.20
15105;DHT22;7653;48.994;9.212;2023-10-19T13:10:31;17.30;94.40
15105;DHT22;7653;48.994;9.212;2023-10-19T13:13:02;17.40;94.30
15105;DHT22;7653;48.994;9.212;2023-10-19T13:15:38;17.30;94.90
15105;DHT22;7653;48.994;9.212;2023-10-19T13:18:06;17.30;95.30
15105;DHT22;7653;48.994;9.212;2023-10-19T13:20:33;17.30;95.30
15105;DHT22;7653;48.994;9.212;2023-10-19T13:23:02;17.20;95.20
15105;DHT22;7653;48.994;9.212;2023-10-19T13:25:35;17.10;95.70
15105;DHT22;7653;48.994;9.212;2023-10-19T13:28:27;17.10;96.10
15105;DHT22;7653;48.994;9.212;2023-10-19T13:30:53;17.00;96.10
15105;DHT22;7653;48.994;9.212;2023-10-19T13:33:20;17.10;96.10
15105;DHT22;7653;48.994;9.212;2023-10-19T13:35:47;17.00;96.20
15105;DHT22;7653;48.994;9.212;2023-10-19T13:38:16;17.10;96.70
15105;DHT22;7653;48.994;9.212;2023-10-19T13:40:43;17.20;96.60
15105;DHT22;7653;48.994;9.212;2023-10-19T13:43:13;17.30;96.20
15105;DHT22;7653;48.994;9.212;2023-10-19T13:45:44;17.40;96.30
15105;DHT22;7653;48.994;9.212;2023-10-19T13:48:10;17.40;96.00
15105;DHT22;7653;48.994;9.212;2023-10-19T13:50:44;17.40;95.70
15105;DHT22;7653;48.994;9.212;2023-10-19T13:53:13;17.20;96.10
15105;DHT22;7653;48.994;9.212;2023-10-19T13:55:39;17.20;96.50
15105;DHT22;7653;48.994;9.212;2023-10-19T13:58:05;17.20;96.10
15105;DHT22;7653;48.994;9.212;2023-10-19T14:00:32;16.90;97.10
15105;DHT22;7653;48.994;9.212;2023-10-19T14:03:04;16.90;97.60
15105;DHT22;7653;48.994;9.212;2023-10-19T14:05:36;17.10;97.40
15105;DHT22;7653;48.994;9.212;2023-10-19T14:08:04;17.10;97.10
15105;DHT22;7653;48.994;9.212;2023-10-19T14:10:30;17.10;97.00
15105;DHT22;7653;48.994;9.212;2023-10-19T14:12:56;17.00;97.20
15105;DHT22;7653;48.994;9.212;2023-10-19T14:15:22;17.00;97.00
15105;DHT22;7653;48.994;9.212;2023-10-19T14:17:49;16.90;97.70
15105;DHT22;7653;48.994;9.212;2023-10-19T14:20:16;17.00;98.00
15105;DHT22;7653;48.994;9.212;2023-10-19T14:22:43;17.10;97.80
15105;DHT22;7653;48.994;9.212;2023-10-19T14:25:11;17.00;97.30
15105;DHT22;7653;48.994;9.212;2023-10-19T14:27:41;16.90;98.30
15105;DHT22;7653;48.994;9.212;2023-10-19T14:30:10;16.90;98.50
15105;DHT22;7653;48.994;9.212;2023-10-19T14:32:41;16.90;97.80
15105;DHT22;7653;48.994;9.212;2023-10-19T14:35:11;16.90;97.70
15105;DHT22;7653;48.994;9.212;2023-10-19T14:37:39;16.90;97.60
15105;DHT22;7653;48.994;9.212;2023-10-19T14:40:08;17.00;97.90
15105;DHT22;7653;48.994;9.212;2023-10-19T14:42:42;17.00;97.40
15105;DHT22;7653;48.994;9.212;2023-10-19T14:45:17;17.00;97.50
15105;DHT22;7653;48.994;9.212;2023-10-19T14:47:50;17.00;97.50
15105;DHT22;7653;48.994;9.212;2023-10-19T14:50:20;17.10;97.40
15105;DHT22;7653;48.994;9.212;2023-10-19T14:52:47;16.90;96.60
15105;DHT22;7653;48.994;9.212;2023-10-19T14:55:14;16.80;97.10
15105;DHT22;7653;48.994;9.212;2023-10-19T14:57:42;16.80;97.20
15105;DHT22;7653;48.994;9.212;2023-10-19T15:00:10;16.90;97.40
15105;DHT22;7653;48.994;9.212;2023-10-19T15:02:48;16.80;97.30
15105;DHT22;7653;48.994;9.212;2023-10-19T15:05:21;16.80;97.30
15105;DHT22;7653;48.994;9.212;2023-10-19T15:07:48;16.70;97.10
15105;DHT22;7653;48.994;9.212;2023-10-19T15:10:22;16.70;97.30
15105;DHT22;7653;48.994;9.212;2023-10-19T15:12:48;16.50;97.10
15105;DHT22;7653;48.994;9.212;2023-10-19T15:15:14;16.40;97.60
15105;DHT22;7653;48.994;9.212;2023-10-19T15:17:41;16.40;97.90
15105;DHT22;7653;48.994;9.212;2023-10-19T15:20:09;16.40;98.00
15105;DHT22;7653;48.994;9.212;2023-10-19T15:22:36;16.40;98.00
15105;DHT22;7653;48.994;9.212;2023-10-19T15:25:03;16.20;98.20
15105;DHT22;7653;48.994;9.212;2023-10-19T15:27:29;16.30;98.60
15105;DHT22;7653;48.994;9.212;2023-10-19T15:29:55;16.40;98.30
15105;DHT22;7653;48.994;9.212;2023-10-19T15:32:22;16.30;98.40
15105;DHT22;7653;48.994;9.212;2023-10-19T15:34:48;16.40;98.80
15105;DHT22;7653;48.994;9.212;2023-10-19T15:37:14;16.40;98.60
15105;DHT22;7653;48.994;9.212;2023-10-19T15:39:39;16.40;98.80
15105;DHT22;7653;48.994;9.212;2023-10-19T15:42:05;16.40;98.60
15105;DHT22;7653;48.994;9.212;2023-10-19T15:44:34;16.40;98.40
15105;DHT22;7653;48.994;9.212;2023-10-19T15:46:59;16.40;98.40
15105;DHT22;7653;48.994;9.212;2023-10-19T15:49:25;16.40;98.10
15105;DHT22;7653;48.994;9.212;2023-10-19T15:51:51;16.40;97.80
15105;DHT22;7653;48.994;9.212;2023-10-19T15:54:17;16.40;97.80
15105;DHT22;7653;48.994;9.212;2023-10-19T15:56:43;16.40;98.10
15105;DHT22;7653;48.994;9.212;2023-10-19T15:59:08;16.40;97.80
15105;DHT22;7653;48.994;9.212;2023-10-19T16:01:34;16.30;97.70
15105;DHT22;7653;48.994;9.212;2023-10-19T16:03:59;16.20;97.70
15105;DHT22;7653;48.994;9.212;2023-10-19T16:06:26;16.20;97.70
15105;DHT22;7653;48.994;9.212;2023-10-19T16:08:54;16.20;98.10
15105;DHT22;7653;48.994;9.212;2023-10-19T16:11:20;16.20;98.10